createdAt,value
2023-05-09T00:00:06.481Z,9.27
2023-05-09T00:01:12.032Z,9.24
2023-05-09T00:02:15.183Z,9.21
2023-05-09T00:03:17.606Z,9.20
2023-05-09T00:04:20.393Z,9.19
2023-05-09T00:05:22.833Z,9.18
2023-05-09T00:06:27.956Z,9.17
2023-05-09T00:07:30.300Z,9.15
2023-05-09T00:08:32.991Z,9.15
2023-05-09T00:09:35.273Z,9.13
2023-05-09T00:10:39.254Z,9.11
2023-05-09T00:11:41.511Z,9.11
2023-05-09T00:12:44.993Z,9.11
2023-05-09T00:13:47.356Z,9.10
2023-05-09T00:14:51.884Z,9.08
2023-05-09T00:15:54.298Z,9.08
2023-05-09T00:16:59.541Z,9.07
2023-05-09T00:18:01.853Z,9.04
2023-05-09T00:19:04.394Z,9.04
2023-05-09T00:20:12.592Z,9.02
2023-05-09T00:21:15.042Z,9.01
2023-05-09T00:22:18.778Z,9.00
2023-05-09T00:23:22.234Z,9.01
2023-05-09T00:24:24.495Z,8.99
2023-05-09T00:25:27.824Z,8.96
2023-05-09T00:26:30.043Z,8.97
2023-05-09T00:27:32.582Z,8.94
2023-05-09T00:28:35.143Z,8.94
2023-05-09T00:29:37.447Z,8.92
2023-05-09T00:30:39.677Z,8.91
2023-05-09T00:31:42.039Z,8.91
2023-05-09T00:32:44.416Z,8.92
2023-05-09T00:33:46.861Z,8.91
2023-05-09T00:34:50.796Z,8.89
2023-05-09T00:35:56.178Z,8.87
2023-05-09T00:36:58.450Z,8.86
2023-05-09T00:38:02.841Z,8.86
2023-05-09T00:39:05.776Z,8.84
2023-05-09T00:40:09.402Z,8.84
2023-05-09T00:41:12.853Z,8.83
2023-05-09T00:42:15.189Z,8.83
2023-05-09T00:43:18.945Z,8.82
2023-05-09T00:44:21.268Z,8.83
2023-05-09T00:45:23.486Z,8.82
2023-05-09T00:46:28.359Z,8.80
2023-05-09T00:47:31.215Z,8.78
2023-05-09T00:48:33.538Z,8.78
2023-05-09T00:49:37.938Z,8.78
2023-05-09T00:50:40.362Z,8.77
2023-05-09T00:51:42.640Z,8.78
2023-05-09T00:52:45.105Z,8.77
2023-05-09T00:53:47.410Z,8.77
2023-05-09T00:54:51.860Z,8.76
2023-05-09T00:55:56.913Z,8.74
2023-05-09T00:56:59.282Z,8.75
2023-05-09T00:58:03.010Z,8.75
2023-05-09T00:59:06.641Z,8.72
2023-05-09T01:00:15.814Z,8.71
2023-05-09T01:01:18.133Z,8.70
2023-05-09T01:02:20.940Z,8.67
2023-05-09T01:03:24.690Z,8.67
2023-05-09T01:04:27.331Z,8.67
2023-05-09T01:05:40.776Z,8.66
2023-05-09T01:07:02.824Z,8.65
2023-05-09T01:08:15.473Z,8.62
2023-05-09T01:09:42.967Z,8.63
2023-05-09T01:11:02.404Z,8.61
2023-05-09T01:12:25.668Z,8.59
2023-05-09T01:13:40.957Z,8.57
2023-05-09T01:14:49.374Z,8.57
2023-05-09T01:16:01.747Z,8.57
2023-05-09T01:17:26.647Z,8.57
2023-05-09T01:18:40.666Z,8.55
2023-05-09T01:20:11.262Z,8.52
2023-05-09T01:21:21.718Z,8.50
2023-05-09T01:22:30.568Z,8.48
2023-05-09T01:23:59.730Z,8.48
2023-05-09T01:25:30.176Z,8.46
2023-05-09T01:26:43.030Z,8.47
2023-05-09T01:28:14.115Z,8.47
2023-05-09T01:29:48.988Z,8.45
2023-05-09T01:30:52.253Z,8.44
2023-05-09T01:31:57.134Z,8.44
2023-05-09T01:33:01.119Z,8.44
2023-05-09T01:34:06.476Z,8.42
2023-05-09T01:35:14.508Z,8.41
2023-05-09T01:36:19.990Z,8.39
2023-05-09T01:37:30.595Z,8.39
2023-05-09T01:38:35.947Z,8.39
2023-05-09T01:39:41.452Z,8.36
2023-05-09T01:40:45.663Z,8.36
2023-05-09T01:41:49.850Z,8.36
2023-05-09T01:42:57.814Z,8.36
2023-05-09T01:44:03.617Z,8.35
2023-05-09T01:45:08.152Z,8.34
2023-05-09T01:46:12.395Z,8.34
2023-05-09T01:47:18.366Z,8.33
2023-05-09T01:48:26.593Z,8.32
2023-05-09T01:49:32.937Z,8.31
2023-05-09T01:50:36.949Z,8.31
2023-05-09T01:51:42.966Z,8.28
2023-05-09T01:52:50.277Z,8.28
2023-05-09T01:53:54.418Z,8.27
2023-05-09T01:54:58.114Z,8.26
2023-05-09T01:56:01.086Z,8.24
2023-05-09T01:57:05.100Z,8.25
2023-05-09T01:58:08.497Z,8.23
2023-05-09T01:59:16.334Z,8.22
2023-05-09T02:00:19.687Z,8.21
2023-05-09T02:01:25.029Z,8.21
2023-05-09T02:02:29.042Z,8.19
2023-05-09T02:03:34.320Z,8.19
2023-05-09T02:04:37.095Z,8.17
2023-05-09T02:05:41.526Z,8.16
2023-05-09T02:06:46.113Z,8.16
2023-05-09T02:07:49.559Z,8.16
2023-05-09T02:08:52.057Z,8.16
2023-05-09T02:09:56.652Z,8.17
2023-05-09T02:10:59.249Z,8.15
2023-05-09T02:12:02.315Z,8.14
2023-05-09T02:13:05.749Z,8.11
2023-05-09T02:14:08.269Z,8.10
2023-05-09T02:15:11.100Z,8.09
2023-05-09T02:16:16.350Z,8.10
2023-05-09T02:17:19.510Z,8.09
2023-05-09T02:18:23.014Z,8.08
2023-05-09T02:19:26.427Z,8.07
2023-05-09T02:20:29.294Z,8.09
2023-05-09T02:21:32.117Z,8.06
2023-05-09T02:22:34.400Z,8.03
2023-05-09T02:23:38.682Z,8.05
2023-05-09T02:24:41.551Z,8.04
2023-05-09T02:25:44.482Z,8.02
2023-05-09T02:26:47.993Z,8.03
2023-05-09T02:27:52.254Z,8.01
2023-05-09T02:28:56.847Z,8.00
2023-05-09T02:30:02.917Z,7.99
2023-05-09T02:31:07.242Z,7.98
2023-05-09T02:32:14.027Z,7.98
2023-05-09T02:33:17.484Z,7.96
2023-05-09T02:34:20.786Z,7.95
2023-05-09T02:35:25.240Z,7.93
2023-05-09T02:36:28.282Z,7.92
2023-05-09T02:37:31.282Z,7.92
2023-05-09T02:38:37.258Z,7.90
2023-05-09T02:39:40.338Z,7.89
2023-05-09T02:40:44.719Z,7.89
2023-05-09T02:41:50.072Z,7.87
2023-05-09T02:42:52.340Z,7.85
2023-05-09T02:43:55.208Z,7.85
2023-05-09T02:44:57.772Z,7.83
2023-05-09T02:46:00.524Z,7.82
2023-05-09T02:47:04.373Z,7.82
2023-05-09T02:48:08.766Z,7.81
2023-05-09T02:49:22.825Z,7.79
2023-05-09T02:50:33.530Z,7.78
2023-05-09T02:51:36.520Z,7.77
2023-05-09T02:52:38.790Z,7.75
2023-05-09T02:53:41.049Z,7.75
2023-05-09T02:54:43.501Z,7.75
2023-05-09T02:55:45.855Z,7.71
2023-05-09T02:56:48.177Z,7.72
2023-05-09T02:57:56.219Z,7.70
2023-05-09T02:59:07.936Z,7.69
2023-05-09T03:00:10.667Z,7.69
2023-05-09T03:01:14.423Z,7.68
2023-05-09T03:02:19.030Z,7.67
2023-05-09T03:03:23.558Z,7.65
2023-05-09T03:04:26.528Z,7.64
2023-05-09T03:05:29.146Z,7.62
2023-05-09T03:06:31.940Z,7.62
2023-05-09T03:07:34.461Z,7.62
2023-05-09T03:08:37.493Z,7.59
2023-05-09T03:09:41.484Z,7.59
2023-05-09T03:10:44.355Z,7.58
2023-05-09T03:11:46.741Z,7.57
2023-05-09T03:12:51.008Z,7.54
2023-05-09T03:13:53.356Z,7.54
2023-05-09T03:14:55.618Z,7.52
2023-05-09T03:15:58.314Z,7.51
2023-05-09T03:17:00.631Z,7.50
2023-05-09T03:18:10.288Z,7.48
2023-05-09T03:19:12.625Z,7.48
2023-05-09T03:20:15.931Z,7.47
2023-05-09T03:21:18.226Z,7.46
2023-05-09T03:22:20.508Z,7.46
2023-05-09T03:23:30.213Z,7.44
2023-05-09T03:24:32.475Z,7.44
2023-05-09T03:25:34.724Z,7.44
2023-05-09T03:26:37.161Z,7.44
2023-05-09T03:27:39.838Z,7.43
2023-05-09T03:28:47.068Z,7.42
2023-05-09T03:29:54.027Z,7.41
2023-05-09T03:30:56.436Z,7.39
2023-05-09T03:32:01.879Z,7.38
2023-05-09T03:33:06.460Z,7.36
2023-05-09T03:34:13.245Z,7.36
2023-05-09T03:35:15.758Z,7.34
2023-05-09T03:36:19.091Z,7.33
2023-05-09T03:37:21.945Z,7.32
2023-05-09T03:38:24.620Z,7.30
2023-05-09T03:39:26.971Z,7.32
2023-05-09T03:40:32.095Z,7.28
2023-05-09T03:41:42.049Z,7.27
2023-05-09T03:42:44.329Z,7.27
2023-05-09T03:43:47.918Z,7.26
2023-05-09T03:44:50.965Z,7.27
2023-05-09T03:45:56.573Z,7.25
2023-05-09T03:46:59.777Z,7.25
2023-05-09T03:48:05.580Z,7.25
2023-05-09T03:49:07.921Z,7.23
2023-05-09T03:50:13.875Z,7.24
2023-05-09T03:51:16.437Z,7.22
2023-05-09T03:52:19.944Z,7.21
2023-05-09T03:53:23.384Z,7.20
2023-05-09T03:54:27.454Z,7.20
2023-05-09T03:55:30.605Z,7.21
2023-05-09T03:56:33.246Z,7.20
2023-05-09T03:57:36.203Z,7.21
2023-05-09T03:58:39.216Z,7.19
2023-05-09T03:59:43.169Z,7.19
2023-05-09T04:00:46.380Z,7.20
2023-05-09T04:01:55.193Z,7.19
2023-05-09T04:03:00.547Z,7.19
2023-05-09T04:04:11.773Z,7.18
2023-05-09T04:05:16.763Z,7.18
2023-05-09T04:06:19.846Z,7.18
2023-05-09T04:07:22.324Z,7.19
2023-05-09T04:08:24.972Z,7.18
2023-05-09T04:09:28.409Z,7.18
2023-05-09T04:10:31.910Z,7.18
2023-05-09T04:11:34.354Z,7.18
2023-05-09T04:12:37.235Z,7.18
2023-05-09T04:13:40.012Z,7.18
2023-05-09T04:14:55.287Z,7.19
2023-05-09T04:16:00.334Z,7.18
2023-05-09T04:17:05.174Z,7.18
2023-05-09T04:18:07.577Z,7.19
2023-05-09T04:19:09.949Z,7.20
2023-05-09T04:20:12.790Z,7.20
2023-05-09T04:21:15.640Z,7.20
2023-05-09T04:22:19.801Z,7.21
2023-05-09T04:23:22.111Z,7.25
2023-05-09T04:24:24.490Z,7.25
2023-05-09T04:25:26.986Z,7.29
2023-05-09T04:26:30.407Z,7.32
2023-05-09T04:27:33.896Z,7.35
2023-05-09T04:28:36.362Z,7.38
2023-05-09T04:29:39.169Z,7.42
2023-05-09T04:30:42.784Z,7.46
2023-05-09T04:31:46.104Z,7.50
2023-05-09T04:32:50.072Z,7.56
2023-05-09T04:33:53.631Z,7.61
2023-05-09T04:34:56.932Z,7.67
2023-05-09T04:36:03.702Z,7.73
2023-05-09T04:37:06.050Z,7.79
2023-05-09T04:38:08.669Z,7.86
2023-05-09T04:39:11.514Z,7.93
2023-05-09T04:40:17.973Z,7.98
2023-05-09T04:41:27.936Z,8.08
2023-05-09T04:42:30.195Z,8.14
2023-05-09T04:43:33.506Z,8.21
2023-05-09T04:44:36.286Z,8.29
2023-05-09T04:45:39.053Z,8.35
2023-05-09T04:46:42.271Z,8.42
2023-05-09T04:47:44.575Z,8.47
2023-05-09T04:48:46.877Z,8.55
2023-05-09T04:49:49.142Z,8.61
2023-05-09T04:50:52.376Z,8.68
2023-05-09T04:51:54.687Z,8.78
2023-05-09T04:52:56.997Z,8.84
2023-05-09T04:53:59.501Z,8.93
2023-05-09T04:55:07.198Z,9.00
2023-05-09T04:56:13.853Z,9.09
2023-05-09T04:57:18.590Z,9.17
2023-05-09T04:58:26.828Z,9.24
2023-05-09T04:59:30.645Z,9.31
2023-05-09T05:00:33.003Z,9.36
2023-05-09T05:01:35.319Z,9.44
2023-05-09T05:02:37.594Z,9.51
2023-05-09T05:03:40.366Z,9.59
2023-05-09T05:04:42.692Z,9.68
2023-05-09T05:05:45.322Z,9.75
2023-05-09T05:06:47.700Z,9.81
2023-05-09T05:07:49.947Z,9.89
2023-05-09T05:08:57.553Z,9.98
2023-05-09T05:09:59.795Z,10.05
2023-05-09T05:11:02.057Z,10.13
2023-05-09T05:12:09.274Z,10.19
2023-05-09T05:13:11.951Z,10.28
2023-05-09T05:14:18.858Z,10.40
2023-05-09T05:15:21.323Z,10.48
2023-05-09T05:16:24.063Z,10.56
2023-05-09T05:17:29.687Z,10.66
2023-05-09T05:18:33.711Z,10.73
2023-05-09T05:19:36.336Z,10.78
2023-05-09T05:20:41.978Z,10.86
2023-05-09T05:21:44.249Z,10.92
2023-05-09T05:22:46.889Z,10.99
2023-05-09T05:23:49.446Z,11.03
2023-05-09T05:24:52.457Z,11.10
2023-05-09T05:25:55.024Z,11.16
2023-05-09T05:26:58.699Z,11.23
2023-05-09T05:28:01.380Z,11.28
2023-05-09T05:29:03.767Z,11.35
2023-05-09T05:30:06.790Z,11.41
2023-05-09T05:31:09.281Z,11.48
2023-05-09T05:32:11.972Z,11.56
2023-05-09T05:33:14.277Z,11.62
2023-05-09T05:34:16.948Z,11.71
2023-05-09T05:35:23.501Z,11.79
2023-05-09T05:36:26.762Z,11.88
2023-05-09T05:37:29.147Z,11.96
2023-05-09T05:38:31.557Z,12.02
2023-05-09T05:39:37.824Z,12.09
2023-05-09T05:40:40.227Z,12.18
2023-05-09T05:41:43.670Z,12.25
2023-05-09T05:42:46.880Z,12.30
2023-05-09T05:43:53.425Z,12.35
2023-05-09T05:44:56.470Z,12.45
2023-05-09T05:45:58.747Z,12.53
2023-05-09T05:47:02.738Z,12.59
2023-05-09T05:48:05.527Z,12.64
2023-05-09T05:49:08.160Z,12.68
2023-05-09T05:50:14.224Z,12.75
2023-05-09T05:51:16.497Z,12.81
2023-05-09T05:52:19.452Z,12.88
2023-05-09T05:53:21.705Z,12.91
2023-05-09T05:54:26.141Z,12.97
2023-05-09T05:55:29.964Z,13.04
2023-05-09T05:56:32.735Z,13.07
2023-05-09T05:57:35.550Z,13.12
2023-05-09T05:58:37.922Z,13.18
2023-05-09T05:59:42.276Z,13.27
2023-05-09T06:00:44.887Z,13.32
2023-05-09T06:01:47.205Z,13.37
2023-05-09T06:02:50.108Z,13.43
2023-05-09T06:04:03.931Z,13.51
2023-05-09T06:05:08.972Z,13.58
2023-05-09T06:06:11.398Z,13.61
2023-05-09T06:07:14.360Z,13.65
2023-05-09T06:08:17.002Z,13.70
2023-05-09T06:09:19.502Z,13.73
2023-05-09T06:10:29.472Z,13.78
2023-05-09T06:11:31.724Z,13.86
2023-05-09T06:12:34.680Z,13.90
2023-05-09T06:13:38.878Z,13.94
2023-05-09T06:14:42.034Z,14.00
2023-05-09T06:15:44.544Z,14.04
2023-05-09T06:16:46.942Z,14.12
2023-05-09T06:17:49.854Z,14.20
2023-05-09T06:18:55.770Z,14.25
2023-05-09T06:19:58.785Z,14.32
2023-05-09T06:21:02.141Z,14.40
2023-05-09T06:22:04.441Z,14.48
2023-05-09T06:23:07.043Z,14.54
2023-05-09T06:24:14.412Z,14.64
2023-05-09T06:25:27.091Z,14.72
2023-05-09T06:26:29.904Z,14.79
2023-05-09T06:27:32.290Z,14.87
2023-05-09T06:28:34.569Z,14.96
2023-05-09T06:29:36.982Z,15.02
2023-05-09T06:30:39.236Z,15.06
2023-05-09T06:31:41.510Z,15.14
2023-05-09T06:32:43.875Z,15.22
2023-05-09T06:33:46.205Z,15.28
2023-05-09T06:34:48.559Z,15.33
2023-05-09T06:35:50.939Z,15.39
2023-05-09T06:36:53.215Z,15.42
2023-05-09T06:37:55.536Z,15.47
2023-05-09T06:38:59.328Z,15.54
2023-05-09T06:40:02.252Z,15.60
2023-05-09T06:41:04.646Z,15.65
2023-05-09T06:42:07.041Z,15.71
2023-05-09T06:43:13.467Z,15.75
2023-05-09T06:44:15.710Z,15.81
2023-05-09T06:45:18.379Z,15.87
2023-05-09T06:46:20.891Z,15.93
2023-05-09T06:47:23.336Z,15.99
2023-05-09T06:48:25.854Z,16.01
2023-05-09T06:49:28.169Z,16.06
2023-05-09T06:50:32.770Z,16.13
2023-05-09T06:51:35.560Z,16.14
2023-05-09T06:52:37.910Z,16.18
2023-05-09T06:53:40.221Z,16.24
2023-05-09T06:54:42.556Z,16.29
2023-05-09T06:55:45.394Z,16.35
2023-05-09T06:56:48.009Z,16.38
2023-05-09T06:57:50.280Z,16.41
2023-05-09T06:58:52.714Z,16.44
2023-05-09T06:59:54.956Z,16.47
2023-05-09T07:00:57.480Z,16.52
2023-05-09T07:01:59.884Z,16.58
2023-05-09T07:03:02.600Z,16.65
2023-05-09T07:04:05.100Z,16.69
2023-05-09T07:05:09.814Z,16.73
2023-05-09T07:06:12.081Z,16.79
2023-05-09T07:07:14.383Z,16.85
2023-05-09T07:08:16.627Z,16.90
2023-05-09T07:09:20.774Z,16.91
2023-05-09T07:10:23.110Z,16.89
2023-05-09T07:11:25.782Z,16.88
2023-05-09T07:12:28.398Z,16.86
2023-05-09T07:13:30.901Z,16.87
2023-05-09T07:14:33.294Z,16.93
2023-05-09T07:15:42.278Z,16.92
2023-05-09T07:16:46.785Z,16.92
2023-05-09T07:17:49.148Z,16.94
2023-05-09T07:18:51.423Z,16.96
2023-05-09T07:19:53.680Z,17.01
2023-05-09T07:20:55.987Z,16.99
2023-05-09T07:21:58.349Z,16.99
2023-05-09T07:23:00.772Z,17.00
2023-05-09T07:24:03.723Z,17.03
2023-05-09T07:25:08.938Z,17.04
2023-05-09T07:26:11.243Z,17.04
2023-05-09T07:27:15.015Z,17.06
2023-05-09T07:28:17.334Z,17.08
2023-05-09T07:29:20.427Z,17.11
2023-05-09T07:30:22.682Z,17.12
2023-05-09T07:31:24.976Z,17.12
2023-05-09T07:32:29.060Z,17.13
2023-05-09T07:33:31.300Z,17.17
2023-05-09T07:34:33.807Z,17.21
2023-05-09T07:35:36.422Z,17.25
2023-05-09T07:38:01.290Z,17.32
2023-05-09T07:39:05.099Z,17.39
2023-05-09T07:40:08.108Z,17.38
2023-05-09T07:41:10.686Z,17.43
2023-05-09T07:42:13.105Z,17.47
2023-05-09T07:43:15.673Z,17.53
2023-05-09T07:44:17.941Z,17.55
2023-05-09T07:45:22.769Z,17.61
2023-05-09T07:46:26.228Z,17.66
2023-05-09T07:47:28.685Z,17.67
2023-05-09T07:48:30.995Z,17.70
2023-05-09T07:49:33.240Z,17.68
2023-05-09T07:50:35.841Z,17.70
2023-05-09T07:51:38.198Z,17.74
2023-05-09T07:52:40.535Z,17.74
2023-05-09T07:53:42.816Z,17.75
2023-05-09T07:54:45.220Z,17.79
2023-05-09T07:55:50.376Z,17.81
2023-05-09T07:56:53.155Z,17.78
2023-05-09T07:57:55.539Z,17.74
2023-05-09T07:58:57.784Z,17.76
2023-05-09T08:00:00.051Z,17.72
2023-05-09T08:01:02.365Z,17.73
2023-05-09T08:02:04.742Z,17.71
2023-05-09T08:03:07.252Z,17.70
2023-05-09T08:04:10.147Z,17.71
2023-05-09T08:05:14.013Z,17.70
2023-05-09T08:06:16.525Z,17.72
2023-05-09T08:07:18.754Z,17.72
2023-05-09T08:08:21.075Z,17.69
2023-05-09T08:09:23.367Z,17.68
2023-05-09T08:10:26.967Z,17.66
2023-05-09T08:11:29.303Z,17.65
2023-05-09T08:12:31.666Z,17.64
2023-05-09T08:13:34.354Z,17.67
2023-05-09T08:14:36.748Z,17.68
2023-05-09T08:15:39.089Z,17.69
2023-05-09T08:16:43.488Z,17.71
2023-05-09T08:17:45.842Z,17.71
2023-05-09T08:18:48.198Z,17.69
2023-05-09T08:19:50.606Z,17.67
2023-05-09T08:20:53.117Z,17.68
2023-05-09T08:21:55.968Z,17.67
2023-05-09T08:22:58.265Z,17.70
2023-05-09T08:24:01.963Z,17.73
2023-05-09T08:25:04.403Z,17.73
2023-05-09T08:26:06.708Z,17.71
2023-05-09T08:27:08.912Z,17.73
2023-05-09T08:28:11.170Z,17.77
2023-05-09T08:29:13.406Z,17.79
2023-05-09T08:30:15.775Z,17.81
2023-05-09T08:31:18.133Z,17.85
2023-05-09T08:32:20.438Z,17.86
2023-05-09T08:33:22.927Z,17.88
2023-05-09T08:34:25.312Z,17.87
2023-05-09T08:35:27.761Z,17.90
2023-05-09T08:36:30.920Z,17.90
2023-05-09T08:37:36.285Z,17.93
2023-05-09T08:38:40.780Z,17.93
2023-05-09T08:39:43.492Z,17.98
2023-05-09T08:40:45.834Z,18.02
2023-05-09T08:41:48.345Z,18.02
2023-05-09T08:42:51.100Z,18.00
2023-05-09T08:43:53.995Z,18.03
2023-05-09T08:44:56.555Z,18.05
2023-05-09T08:46:01.439Z,18.04
2023-05-09T08:47:04.795Z,18.06
2023-05-09T08:48:08.295Z,18.09
2023-05-09T08:49:11.441Z,18.15
2023-05-09T08:50:15.789Z,18.14
2023-05-09T08:51:18.489Z,18.13
2023-05-09T08:52:21.698Z,18.14
2023-05-09T08:53:23.997Z,18.16
2023-05-09T08:54:26.561Z,18.16
2023-05-09T08:55:29.312Z,18.17
2023-05-09T08:56:32.127Z,18.18
2023-05-09T08:57:37.532Z,18.12
2023-05-09T08:58:40.482Z,18.15
2023-05-09T08:59:43.198Z,18.15
2023-05-09T09:00:47.346Z,18.17
2023-05-09T09:01:50.428Z,18.18
2023-05-09T09:02:54.213Z,18.23
2023-05-09T09:03:56.694Z,18.24
2023-05-09T09:04:59.335Z,18.24
2023-05-09T09:06:02.372Z,18.30
2023-05-09T09:07:06.519Z,18.32
2023-05-09T09:08:10.159Z,18.35
2023-05-09T09:09:14.030Z,18.39
2023-05-09T09:10:17.149Z,18.43
2023-05-09T09:11:20.119Z,18.46
2023-05-09T09:12:25.494Z,18.45
2023-05-09T09:13:28.867Z,18.46
2023-05-09T09:14:32.713Z,18.46
2023-05-09T09:15:37.714Z,18.51
2023-05-09T09:16:41.817Z,18.53
2023-05-09T09:18:52.369Z,18.58
2023-05-09T09:20:02.727Z,18.59
2023-05-09T09:21:10.537Z,18.61
2023-05-09T09:22:18.603Z,18.68
2023-05-09T09:23:24.983Z,18.71
2023-05-09T09:24:27.270Z,18.67
2023-05-09T09:25:29.589Z,18.70
2023-05-09T09:26:32.034Z,18.73
2023-05-09T09:27:35.697Z,18.78
2023-05-09T09:28:38.017Z,18.77
2023-05-09T09:29:40.328Z,18.80
2023-05-09T09:30:48.511Z,18.84
2023-05-09T09:31:55.255Z,18.80
2023-05-09T09:32:59.429Z,18.83
2023-05-09T09:34:02.990Z,18.84
2023-05-09T09:35:09.584Z,18.86
2023-05-09T09:36:11.908Z,18.88
2023-05-09T09:37:23.302Z,18.90
2023-05-09T09:38:25.556Z,18.92
2023-05-09T09:39:27.816Z,18.91
2023-05-09T09:40:30.023Z,18.92
2023-05-09T09:41:34.496Z,18.92
2023-05-09T09:42:49.017Z,18.93
2023-05-09T09:43:51.413Z,18.85
2023-05-09T09:45:02.445Z,18.86
2023-05-09T09:46:05.686Z,18.84
2023-05-09T09:47:10.888Z,18.81
2023-05-09T09:48:13.168Z,18.76
2023-05-09T09:49:17.338Z,18.76
2023-05-09T09:50:23.488Z,18.76
2023-05-09T09:51:29.189Z,18.77
2023-05-09T09:52:31.869Z,18.78
2023-05-09T09:53:39.975Z,18.75
2023-05-09T09:54:42.380Z,18.78
2023-05-09T09:55:52.281Z,18.74
2023-05-09T09:56:55.380Z,18.72
2023-05-09T09:57:57.728Z,18.72
2023-05-09T09:59:11.671Z,18.73
2023-05-09T10:00:18.939Z,18.73
2023-05-09T10:01:21.420Z,18.69
2023-05-09T10:02:24.915Z,18.69
2023-05-09T10:03:35.965Z,18.69
2023-05-09T10:04:39.543Z,18.70
2023-05-09T10:05:42.243Z,18.67
2023-05-09T10:06:55.339Z,18.67
2023-05-09T10:08:03.960Z,18.63
2023-05-09T10:09:06.982Z,18.61
2023-05-09T10:10:09.836Z,18.60
2023-05-09T10:11:12.506Z,18.61
2023-05-09T10:12:18.127Z,18.62
2023-05-09T10:13:21.363Z,18.65
2023-05-09T10:14:26.143Z,18.67
2023-05-09T10:15:41.436Z,18.70
2023-05-09T10:16:56.187Z,18.70
2023-05-09T10:18:01.364Z,18.70
2023-05-09T10:19:04.217Z,18.69
2023-05-09T10:20:07.951Z,18.72
2023-05-09T10:21:15.568Z,18.70
2023-05-09T10:22:19.821Z,18.74
2023-05-09T10:23:23.362Z,18.76
2023-05-09T10:24:37.984Z,18.77
2023-05-09T10:25:49.642Z,18.77
2023-05-09T10:26:57.106Z,18.79
2023-05-09T10:28:02.000Z,18.80
2023-05-09T10:29:09.415Z,18.84
2023-05-09T10:30:32.972Z,18.87
2023-05-09T10:31:39.737Z,18.83
2023-05-09T10:32:54.089Z,18.82
2023-05-09T10:33:56.715Z,18.83
2023-05-09T10:35:05.192Z,18.83
2023-05-09T10:36:08.415Z,18.81
2023-05-09T10:37:11.259Z,18.77
2023-05-09T10:38:14.183Z,18.77
2023-05-09T10:39:17.679Z,18.74
2023-05-09T10:40:20.695Z,18.70
2023-05-09T10:41:23.893Z,18.68
2023-05-09T10:42:26.901Z,18.66
2023-05-09T10:44:33.225Z,18.61
2023-05-09T10:45:35.889Z,18.58
2023-05-09T10:46:38.639Z,18.54
2023-05-09T10:47:42.698Z,18.51
2023-05-09T10:48:45.789Z,18.50
2023-05-09T10:49:49.494Z,18.51
2023-05-09T10:50:52.801Z,18.49
2023-05-09T10:51:55.533Z,18.46
2023-05-09T10:53:14.316Z,18.44
2023-05-09T10:54:30.710Z,18.46
2023-05-09T10:55:55.685Z,18.42
2023-05-09T10:56:58.181Z,18.43
2023-05-09T10:58:18.273Z,18.38
2023-05-09T10:59:38.075Z,18.38
2023-05-09T11:00:43.589Z,18.36
2023-05-09T11:01:46.735Z,18.34
2023-05-09T11:03:15.442Z,18.33
2023-05-09T11:04:17.788Z,18.32
2023-05-09T11:05:20.543Z,18.31
2023-05-09T11:06:56.475Z,18.30
2023-05-09T11:08:29.903Z,18.25
2023-05-09T11:09:41.587Z,18.29
2023-05-09T11:10:44.135Z,18.30
2023-05-09T11:11:53.530Z,18.32
2023-05-09T11:13:00.524Z,18.34
2023-05-09T11:14:02.913Z,18.36
2023-05-09T11:15:06.699Z,18.37
2023-05-09T11:16:11.965Z,18.35
2023-05-09T11:17:23.427Z,18.38
2023-05-09T11:18:25.925Z,18.37
2023-05-09T11:19:46.742Z,18.36
2023-05-09T11:20:51.610Z,18.34
2023-05-09T11:22:02.665Z,18.33
2023-05-09T11:23:06.398Z,18.29
2023-05-09T11:24:18.955Z,18.27
2023-05-09T11:25:33.130Z,18.27
2023-05-09T11:26:35.796Z,18.28
2023-05-09T11:27:45.527Z,18.27
2023-05-09T11:28:53.895Z,18.23
2023-05-09T11:29:58.301Z,18.23
2023-05-09T11:31:14.965Z,18.20
2023-05-09T11:32:17.776Z,18.22
2023-05-09T11:33:39.444Z,18.20
2023-05-09T11:34:44.825Z,18.20
2023-05-09T11:35:47.503Z,18.18
2023-05-09T11:36:49.875Z,18.16
2023-05-09T11:38:05.820Z,18.18
2023-05-09T11:39:10.869Z,18.16
2023-05-09T11:40:14.914Z,18.16
2023-05-09T11:41:17.593Z,18.17
2023-05-09T11:42:21.081Z,18.15
2023-05-09T11:43:23.721Z,18.17
2023-05-09T11:44:28.059Z,18.19
2023-05-09T11:45:32.111Z,18.20
2023-05-09T11:46:34.544Z,18.24
2023-05-09T11:47:38.333Z,18.27
2023-05-09T11:48:42.401Z,18.30
2023-05-09T11:49:45.061Z,18.33
2023-05-09T11:50:48.097Z,18.35
2023-05-09T11:51:50.823Z,18.36
2023-05-09T11:52:54.182Z,18.38
2023-05-09T11:53:56.455Z,18.41
2023-05-09T11:54:59.630Z,18.42
2023-05-09T11:56:05.982Z,18.41
2023-05-09T11:57:08.814Z,18.42
2023-05-09T11:58:11.251Z,18.38
2023-05-09T11:59:15.968Z,18.40
2023-05-09T12:00:20.855Z,18.41
2023-05-09T12:01:23.500Z,18.41
2023-05-09T12:02:25.885Z,18.43
2023-05-09T12:03:28.456Z,18.43
2023-05-09T12:04:32.294Z,18.44
2023-05-09T12:05:34.998Z,18.44
2023-05-09T12:06:37.902Z,18.44
2023-05-09T12:07:41.395Z,18.46
2023-05-09T12:08:45.165Z,18.47
2023-05-09T12:09:49.751Z,18.47
2023-05-09T12:10:52.006Z,18.45
2023-05-09T12:11:54.237Z,18.40
2023-05-09T12:12:57.294Z,18.40
2023-05-09T12:13:59.670Z,18.40
2023-05-09T12:15:08.517Z,18.40
2023-05-09T12:16:10.833Z,18.41
2023-05-09T12:17:13.150Z,18.43
2023-05-09T12:18:20.778Z,18.42
2023-05-09T12:19:24.568Z,18.43
2023-05-09T12:20:40.871Z,18.43
2023-05-09T12:21:44.722Z,18.43
2023-05-09T12:22:53.517Z,18.42
2023-05-09T12:23:57.041Z,18.43
2023-05-09T12:25:07.510Z,18.46
2023-05-09T12:26:09.979Z,18.43
2023-05-09T12:27:12.829Z,18.44
2023-05-09T12:28:15.666Z,18.42
2023-05-09T12:29:18.563Z,18.44
2023-05-09T12:30:20.978Z,18.44
2023-05-09T12:31:23.593Z,18.48
2023-05-09T12:32:31.865Z,18.48
2023-05-09T12:33:34.720Z,18.48
2023-05-09T12:34:37.057Z,18.49
2023-05-09T12:35:40.573Z,18.50
2023-05-09T12:37:58.433Z,18.57
2023-05-09T12:39:00.729Z,18.60
2023-05-09T12:40:07.366Z,18.59
2023-05-09T12:41:31.067Z,18.61
2023-05-09T12:42:36.119Z,18.60
2023-05-09T12:43:42.531Z,18.61
2023-05-09T12:44:49.593Z,18.61
2023-05-09T12:45:54.613Z,18.61
2023-05-09T12:46:58.932Z,18.60
2023-05-09T12:48:02.680Z,18.58
2023-05-09T12:49:05.528Z,18.61
2023-05-09T12:50:10.715Z,18.58
2023-05-09T12:51:13.149Z,18.58
2023-05-09T12:52:20.604Z,18.59
2023-05-09T12:53:32.064Z,18.58
2023-05-09T12:54:34.346Z,18.56
2023-05-09T12:55:44.076Z,18.58
2023-05-09T12:56:47.952Z,18.59
2023-05-09T12:58:59.815Z,18.54
2023-05-09T13:00:04.896Z,18.53
2023-05-09T13:02:10.760Z,18.51
2023-05-09T13:03:27.539Z,18.48
2023-05-09T13:04:29.964Z,18.48
2023-05-09T13:05:32.235Z,18.48
2023-05-09T13:06:36.405Z,18.47
2023-05-09T13:07:46.342Z,18.49
2023-05-09T13:08:59.181Z,18.48
2023-05-09T13:10:02.122Z,18.46
2023-05-09T13:11:15.520Z,18.47
2023-05-09T13:12:20.762Z,18.44
2023-05-09T13:13:28.206Z,18.44
2023-05-09T13:14:30.938Z,18.43
2023-05-09T13:15:33.972Z,18.43
2023-05-09T13:16:36.416Z,18.43
2023-05-09T13:17:39.206Z,18.43
2023-05-09T13:18:41.481Z,18.43
2023-05-09T13:19:43.743Z,18.43
2023-05-09T13:20:46.302Z,18.47
2023-05-09T13:21:48.580Z,18.48
2023-05-09T13:22:51.288Z,18.49
2023-05-09T13:23:53.803Z,18.50
2023-05-09T13:24:56.736Z,18.52
2023-05-09T13:25:59.157Z,18.52
2023-05-09T13:27:01.487Z,18.56
2023-05-09T13:29:08.453Z,18.56
2023-05-09T13:30:11.268Z,18.54
2023-05-09T13:31:13.585Z,18.51
2023-05-09T13:32:16.108Z,18.52
2023-05-09T13:33:25.648Z,18.49
2023-05-09T13:34:28.916Z,18.49
2023-05-09T13:35:31.197Z,18.50
2023-05-09T13:36:33.899Z,18.48
2023-05-09T13:37:36.660Z,18.48
2023-05-09T13:38:40.907Z,18.46
2023-05-09T13:39:43.295Z,18.44
2023-05-09T13:40:45.563Z,18.43
2023-05-09T13:41:51.119Z,18.42
2023-05-09T13:42:53.597Z,18.41
2023-05-09T13:43:56.003Z,18.44
2023-05-09T13:44:58.284Z,18.44
2023-05-09T13:46:00.764Z,18.42
2023-05-09T13:47:03.049Z,18.42
2023-05-09T13:48:05.716Z,18.40
2023-05-09T13:49:08.051Z,18.39
2023-05-09T13:50:11.123Z,18.38
2023-05-09T13:51:14.115Z,18.39
2023-05-09T13:52:16.712Z,18.39
2023-05-09T13:53:19.129Z,18.41
2023-05-09T13:54:23.277Z,18.38
2023-05-09T13:55:27.139Z,18.36
2023-05-09T13:56:29.533Z,18.37
2023-05-09T13:57:31.821Z,18.39
2023-05-09T13:58:34.328Z,18.37
2023-05-09T13:59:36.911Z,18.39
2023-05-09T14:00:39.169Z,18.39
2023-05-09T14:01:41.475Z,18.39
2023-05-09T14:02:43.791Z,18.38
2023-05-09T14:03:48.835Z,18.37
2023-05-09T14:04:51.165Z,18.39
2023-05-09T14:05:53.513Z,18.38
2023-05-09T14:06:56.290Z,18.36
2023-05-09T14:07:58.676Z,18.32
2023-05-09T14:09:01.099Z,18.28
2023-05-09T14:11:09.579Z,18.11